Kildare, Ireland
Current Conditions -  °F | °C
As of 11:00 PM on Tuesday 27 Jan 2015 (Local Time) from EIME Reporting Station
Drizzle Drizzle  
Wind Chill: 38°   Ceiling: 1500
Heat Index: 46°   Visibility: 6mi
Dew Point: 45°   Wind: 25mph
Humidity: 93%   Direction: 220°SW
Pressure: 29.88"   Gusts: NA
Location:  53.16°N, 6.99°W
Report Text: EIME 272300Z 22022KT 9999 -DZ BKN015 08/07 Q1012
Loading
Personal Weather Stations






























Interactive Weather Map New forecast layout! Learn more

10-Day Weather Forecast

Advertisements
Track Severe Weather on mobile